createdAt,value
2018-10-19T00:00:41.466Z,1023.7
2018-10-19T00:01:41.495Z,1023.66
2018-10-19T00:02:41.506Z,1023.67
2018-10-19T00:03:41.436Z,1023.65
2018-10-19T00:04:41.479Z,1023.65
2018-10-19T00:05:41.830Z,1023.67
2018-10-19T00:06:41.462Z,1023.66
2018-10-19T00:07:41.438Z,1023.64
2018-10-19T00:08:41.462Z,1023.66
2018-10-19T00:09:41.424Z,1023.64
2018-10-19T00:10:41.484Z,1023.64
2018-10-19T00:11:41.469Z,1023.66
2018-10-19T00:12:41.597Z,1023.64
2018-10-19T00:13:41.447Z,1023.64
2018-10-19T00:14:41.446Z,1023.63
2018-10-19T00:16:41.408Z,1023.61
2018-10-19T00:17:41.430Z,1023.63
2018-10-19T00:18:41.677Z,1023.64
2018-10-19T00:19:41.438Z,1023.63
2018-10-19T00:20:41.452Z,1023.66
2018-10-19T00:21:41.412Z,1023.62
2018-10-19T00:22:41.438Z,1023.7
2018-10-19T00:23:41.446Z,1023.61
2018-10-19T00:24:41.518Z,1023.64
2018-10-19T00:25:41.426Z,1023.63
2018-10-19T00:26:41.745Z,1023.6
2018-10-19T00:27:41.484Z,1023.64
2018-10-19T00:28:41.496Z,1023.59
2018-10-19T00:29:41.447Z,1023.66
2018-10-19T00:30:41.763Z,1023.71
2018-10-19T00:31:41.429Z,1023.69
2018-10-19T00:32:41.441Z,1023.71
2018-10-19T00:33:41.484Z,1023.75
2018-10-19T00:34:41.395Z,1023.73
2018-10-19T00:35:41.552Z,1023.69
2018-10-19T00:36:41.827Z,1023.74
2018-10-19T00:37:41.403Z,1023.67
2018-10-19T00:38:41.419Z,1023.68
2018-10-19T00:39:41.622Z,1023.69
2018-10-19T00:40:41.464Z,1023.73
2018-10-19T00:41:41.520Z,1023.71
2018-10-19T00:42:41.398Z,1023.74
2018-10-19T00:43:41.504Z,1023.75
2018-10-19T00:44:41.412Z,1023.75
2018-10-19T00:45:41.743Z,1023.71
2018-10-19T00:46:41.405Z,1023.72
2018-10-19T00:47:41.477Z,1023.76
2018-10-19T00:48:41.586Z,1023.75
2018-10-19T00:49:41.568Z,1023.73
2018-10-19T00:50:41.480Z,1023.71
2018-10-19T00:51:41.379Z,1023.77
2018-10-19T00:52:41.488Z,1023.75
2018-10-19T00:53:41.377Z,1023.75
2018-10-19T00:54:41.801Z,1023.75
2018-10-19T00:55:41.645Z,1023.77
2018-10-19T00:56:41.416Z,1023.73
2018-10-19T00:57:41.393Z,1023.72
2018-10-19T00:58:41.426Z,1023.74
2018-10-19T00:59:41.574Z,1023.74
2018-10-19T01:00:41.573Z,1023.75
2018-10-19T01:01:41.484Z,1023.7
2018-10-19T01:02:41.441Z,1023.73
2018-10-19T01:03:41.453Z,1023.7
2018-10-19T01:04:41.558Z,1023.71
2018-10-19T01:05:41.523Z,1023.65
2018-10-19T01:06:41.807Z,1023.68
2018-10-19T01:07:41.475Z,1023.72
2018-10-19T01:08:41.411Z,1023.66
2018-10-19T01:09:41.492Z,1023.71
2018-10-19T01:10:41.498Z,1023.66
2018-10-19T01:11:41.369Z,1023.67
2018-10-19T01:12:41.469Z,1023.68
2018-10-19T01:13:41.566Z,1023.63
2018-10-19T01:14:41.368Z,1023.66
2018-10-19T01:15:41.440Z,1023.67
2018-10-19T01:16:41.476Z,1023.6
2018-10-19T01:17:41.493Z,1023.61
2018-10-19T01:18:41.402Z,1023.63
2018-10-19T01:19:41.394Z,1023.56
2018-10-19T01:20:41.349Z,1023.61
2018-10-19T01:21:41.580Z,1023.55
2018-10-19T01:22:41.387Z,1023.57
2018-10-19T01:23:41.401Z,1023.56
2018-10-19T01:24:41.318Z,1023.54
2018-10-19T01:25:41.642Z,1023.49
2018-10-19T01:26:41.375Z,1023.51
2018-10-19T01:27:41.657Z,1023.5
2018-10-19T01:28:41.438Z,1023.46
2018-10-19T01:29:41.373Z,1023.42
2018-10-19T01:30:41.394Z,1023.44
2018-10-19T01:31:41.370Z,1023.41
2018-10-19T01:32:41.333Z,1023.43
2018-10-19T01:33:41.455Z,1023.46
2018-10-19T01:34:41.351Z,1023.4
2018-10-19T01:35:41.450Z,1023.38
2018-10-19T01:36:41.322Z,1023.41
2018-10-19T01:37:41.625Z,1023.42
2018-10-19T01:38:41.332Z,1023.42
2018-10-19T01:39:41.368Z,1023.4
2018-10-19T01:40:41.317Z,1023.42
2018-10-19T01:41:41.655Z,1023.37
2018-10-19T01:42:41.319Z,1023.41
2018-10-19T01:43:41.377Z,1023.38
2018-10-19T01:44:41.329Z,1023.44
2018-10-19T01:45:41.593Z,1023.42
2018-10-19T01:46:41.322Z,1023.39
2018-10-19T01:47:41.440Z,1023.43
2018-10-19T01:48:41.303Z,1023.41
2018-10-19T01:49:41.478Z,1023.43
2018-10-19T01:50:41.370Z,1023.4
2018-10-19T01:51:41.309Z,1023.39
2018-10-19T01:52:41.330Z,1023.42
2018-10-19T01:53:41.331Z,1023.37
2018-10-19T01:54:41.398Z,1023.35
2018-10-19T01:55:41.338Z,1023.41
2018-10-19T01:56:41.299Z,1023.41
2018-10-19T01:57:41.401Z,1023.37
2018-10-19T01:58:41.434Z,1023.38
2018-10-19T01:59:41.286Z,1023.42
2018-10-19T02:00:41.397Z,1023.42
2018-10-19T02:01:42.014Z,1023.4
2018-10-19T02:02:41.591Z,1023.44
2018-10-19T02:03:41.673Z,1023.44
2018-10-19T02:04:41.415Z,1023.42
2018-10-19T02:05:41.276Z,1023.44
2018-10-19T02:06:41.309Z,1023.49
2018-10-19T02:07:41.485Z,1023.52
2018-10-19T02:08:41.432Z,1023.51
2018-10-19T02:09:41.304Z,1023.47
2018-10-19T02:10:41.320Z,1023.51
2018-10-19T02:11:41.378Z,1023.53
2018-10-19T02:12:41.409Z,1023.56
2018-10-19T02:13:41.317Z,1023.53
2018-10-19T02:14:41.583Z,1023.52
2018-10-19T02:15:41.428Z,1023.57
2018-10-19T02:16:41.296Z,1023.54
2018-10-19T02:17:41.474Z,1023.59
2018-10-19T02:18:41.516Z,1023.55
2018-10-19T02:19:41.379Z,1023.53
2018-10-19T02:20:41.313Z,1023.57
2018-10-19T02:21:41.319Z,1023.57
2018-10-19T02:22:41.331Z,1023.55
2018-10-19T02:23:41.420Z,1023.57
2018-10-19T02:24:41.295Z,1023.56
2018-10-19T02:25:41.263Z,1023.53
2018-10-19T02:26:41.303Z,1023.52
2018-10-19T02:27:41.511Z,1023.53
2018-10-19T02:28:41.348Z,1023.51
2018-10-19T02:29:41.326Z,1023.5
2018-10-19T02:30:41.321Z,1023.49
2018-10-19T02:31:41.347Z,1023.47
2018-10-19T02:32:41.253Z,1023.46
2018-10-19T02:33:41.659Z,1023.47
2018-10-19T02:34:41.260Z,1023.48
2018-10-19T02:35:41.533Z,1023.48
2018-10-19T02:36:41.271Z,1023.46
2018-10-19T02:37:41.249Z,1023.44
2018-10-19T02:38:41.408Z,1023.48
2018-10-19T02:39:41.559Z,1023.5
2018-10-19T02:40:41.427Z,1023.49
2018-10-19T02:41:41.568Z,1023.5
2018-10-19T02:42:41.671Z,1023.5
2018-10-19T02:43:41.272Z,1023.47
2018-10-19T02:44:41.233Z,1023.5
2018-10-19T02:45:41.416Z,1023.46
2018-10-19T02:46:41.291Z,1023.42
2018-10-19T02:47:41.224Z,1023.39
2018-10-19T02:48:41.625Z,1023.4
2018-10-19T02:49:41.261Z,1023.39
2018-10-19T02:50:41.283Z,1023.42
2018-10-19T02:51:41.232Z,1023.44
2018-10-19T02:52:41.239Z,1023.39
2018-10-19T02:53:41.244Z,1023.39
2018-10-19T02:54:41.213Z,1023.44
2018-10-19T02:55:41.241Z,1023.4
2018-10-19T02:56:41.303Z,1023.45
2018-10-19T02:57:41.583Z,1023.46
2018-10-19T02:58:41.433Z,1023.45
2018-10-19T02:59:41.506Z,1023.42
2018-10-19T03:00:41.465Z,1023.5
2018-10-19T03:01:41.247Z,1023.48
2018-10-19T03:02:41.218Z,1023.5
2018-10-19T03:03:41.388Z,1023.46
2018-10-19T03:04:41.259Z,1023.46
2018-10-19T03:05:41.229Z,1023.48
2018-10-19T03:06:41.246Z,1023.47
2018-10-19T03:07:41.227Z,1023.55
2018-10-19T03:08:41.407Z,1023.53
2018-10-19T03:09:41.278Z,1023.54
2018-10-19T03:10:41.314Z,1023.6
2018-10-19T03:11:41.409Z,1023.5
2018-10-19T03:12:41.245Z,1023.61
2018-10-19T03:13:41.209Z,1023.61
2018-10-19T03:14:41.235Z,1023.63
2018-10-19T03:15:41.354Z,1023.68
2018-10-19T03:16:41.209Z,1023.69
2018-10-19T03:17:41.194Z,1023.71
2018-10-19T03:18:41.214Z,1023.76
2018-10-19T03:19:41.547Z,1023.72
2018-10-19T03:20:41.206Z,1023.74
2018-10-19T03:21:41.210Z,1023.77
2018-10-19T03:23:07.677Z,1023.75
2018-10-19T03:24:07.371Z,1023.73
2018-10-19T03:25:07.366Z,1023.71
2018-10-19T03:26:07.351Z,1023.77
2018-10-19T03:27:07.573Z,1023.71
2018-10-19T03:28:07.366Z,1023.69
2018-10-19T03:29:07.542Z,1023.68
2018-10-19T03:30:07.385Z,1023.69
2018-10-19T03:31:07.779Z,1023.69
2018-10-19T03:32:07.344Z,1023.69
2018-10-19T03:33:07.488Z,1023.73
2018-10-19T03:34:07.710Z,1023.67
2018-10-19T03:35:07.533Z,1023.73
2018-10-19T03:36:07.319Z,1023.69
2018-10-19T03:37:07.353Z,1023.67
2018-10-19T03:38:07.679Z,1023.72
2018-10-19T03:39:07.556Z,1023.79
2018-10-19T03:40:07.373Z,1023.77
2018-10-19T03:41:07.560Z,1023.78
2018-10-19T03:42:07.401Z,1023.76
2018-10-19T03:43:07.550Z,1023.82
2018-10-19T03:44:07.462Z,1023.78
2018-10-19T03:45:07.551Z,1023.81
2018-10-19T03:46:07.642Z,1023.81
2018-10-19T03:47:07.478Z,1023.8
2018-10-19T03:48:07.397Z,1023.83
2018-10-19T03:49:07.435Z,1023.86
2018-10-19T03:50:07.319Z,1023.8
2018-10-19T03:51:07.483Z,1023.85
2018-10-19T03:52:07.315Z,1023.85
2018-10-19T03:53:07.483Z,1023.81
2018-10-19T03:54:07.281Z,1023.81
2018-10-19T03:55:07.356Z,1023.8
2018-10-19T03:56:07.462Z,1023.85
2018-10-19T03:57:07.535Z,1023.78
2018-10-19T03:58:07.321Z,1023.81
2018-10-19T03:59:07.414Z,1023.84
2018-10-19T04:00:07.736Z,1023.84
2018-10-19T04:01:07.376Z,1023.89
2018-10-19T04:02:07.407Z,1023.84
2018-10-19T04:03:08.003Z,1023.89
2018-10-19T04:04:07.361Z,1023.9
2018-10-19T04:05:07.508Z,1023.88
2018-10-19T04:06:07.435Z,1023.9
2018-10-19T04:07:07.413Z,1023.91
2018-10-19T04:08:07.309Z,1023.95
2018-10-19T04:09:07.446Z,1023.87
2018-10-19T04:10:07.393Z,1023.89
2018-10-19T04:11:07.422Z,1023.88
2018-10-19T04:12:07.322Z,1023.89
2018-10-19T04:13:07.528Z,1023.86
2018-10-19T04:14:07.284Z,1023.93
2018-10-19T04:15:07.483Z,1023.93
2018-10-19T04:16:07.340Z,1023.96
2018-10-19T04:17:07.619Z,1023.96
2018-10-19T04:18:07.280Z,1023.99
2018-10-19T04:19:07.276Z,1024
2018-10-19T04:20:07.415Z,1023.94
2018-10-19T04:21:07.504Z,1023.97
2018-10-19T04:22:07.315Z,1023.9
2018-10-19T04:23:07.465Z,1023.99
2018-10-19T04:24:07.714Z,1023.97
2018-10-19T04:25:07.293Z,1023.99
2018-10-19T04:26:07.713Z,1024.02
2018-10-19T04:27:07.560Z,1023.96
2018-10-19T04:28:07.266Z,1024.01
2018-10-19T04:29:07.488Z,1023.99
2018-10-19T04:30:07.250Z,1023.96
2018-10-19T04:31:07.314Z,1024
2018-10-19T04:32:07.392Z,1024.01
2018-10-19T04:33:07.663Z,1024.04
2018-10-19T04:34:07.647Z,1024.04
2018-10-19T04:35:07.433Z,1024.03
2018-10-19T04:36:07.310Z,1024.06
2018-10-19T04:37:07.250Z,1024.08
2018-10-19T04:38:07.231Z,1024.03
2018-10-19T04:39:07.487Z,1024.03
2018-10-19T04:40:07.220Z,1024.04
2018-10-19T04:41:07.777Z,1024.01
2018-10-19T04:42:07.769Z,1024.04
2018-10-19T04:43:07.239Z,1024
2018-10-19T04:44:07.476Z,1023.99
2018-10-19T04:45:07.334Z,1023.94
2018-10-19T04:46:07.262Z,1023.95
2018-10-19T04:47:07.407Z,1023.92
2018-10-19T04:48:07.375Z,1023.91
2018-10-19T04:49:07.306Z,1023.97
2018-10-19T04:50:07.237Z,1023.92
2018-10-19T04:51:07.535Z,1023.98
2018-10-19T04:52:08.535Z,1023.98
2018-10-19T04:53:07.550Z,1024
2018-10-19T04:54:07.262Z,1024.02
2018-10-19T04:55:07.269Z,1024.06
2018-10-19T04:56:07.364Z,1024.05
2018-10-19T04:57:07.377Z,1024.03
2018-10-19T04:58:07.228Z,1024.05
2018-10-19T04:59:07.496Z,1024.09
2018-10-19T05:00:07.216Z,1024.04
2018-10-19T05:01:07.285Z,1024.03
2018-10-19T05:02:07.242Z,1024
2018-10-19T05:03:07.558Z,1024.06
2018-10-19T05:04:07.360Z,1024.05
2018-10-19T05:05:07.567Z,1024.09
2018-10-19T05:06:07.402Z,1024.06
2018-10-19T05:07:07.267Z,1024.06
2018-10-19T05:08:07.779Z,1024.08
2018-10-19T05:09:07.295Z,1024.08
2018-10-19T05:10:07.208Z,1024.07
2018-10-19T05:11:07.374Z,1024.07
2018-10-19T05:12:07.167Z,1024.07
2018-10-19T05:13:07.596Z,1024.04
2018-10-19T05:14:07.509Z,1024.06
2018-10-19T05:15:07.659Z,1024.06
2018-10-19T05:17:07.372Z,1024.09
2018-10-19T05:18:07.170Z,1024.09
2018-10-19T05:19:07.330Z,1024.09
2018-10-19T05:20:07.448Z,1024.17
2018-10-19T05:21:07.563Z,1024.13
2018-10-19T05:22:07.243Z,1024.17
2018-10-19T05:23:07.355Z,1024.17
2018-10-19T05:24:07.169Z,1024.19
2018-10-19T05:25:07.173Z,1024.17
2018-10-19T05:26:07.344Z,1024.18
2018-10-19T05:27:07.169Z,1024.23
2018-10-19T05:28:07.195Z,1024.23
2018-10-19T05:29:07.417Z,1024.27
2018-10-19T05:30:07.395Z,1024.24
2018-10-19T05:31:07.203Z,1024.23
2018-10-19T05:32:07.348Z,1024.26
2018-10-19T05:33:07.574Z,1024.27
2018-10-19T05:34:07.232Z,1024.28
2018-10-19T05:35:07.277Z,1024.3
2018-10-19T05:36:07.313Z,1024.27
2018-10-19T05:37:07.220Z,1024.26
2018-10-19T05:38:07.362Z,1024.27
2018-10-19T05:39:07.234Z,1024.32
2018-10-19T05:40:07.338Z,1024.3
2018-10-19T05:41:07.479Z,1024.29
2018-10-19T05:42:07.445Z,1024.26
2018-10-19T05:43:07.287Z,1024.29
2018-10-19T05:44:07.707Z,1024.29
2018-10-19T05:45:07.157Z,1024.27
2018-10-19T05:46:07.167Z,1024.29
2018-10-19T05:47:07.402Z,1024.28
2018-10-19T05:48:07.162Z,1024.28
2018-10-19T05:49:07.393Z,1024.31
2018-10-19T05:50:07.297Z,1024.32
2018-10-19T05:51:07.142Z,1024.29
2018-10-19T05:52:07.334Z,1024.37
2018-10-19T05:53:07.328Z,1024.36
2018-10-19T05:54:07.129Z,1024.39
2018-10-19T05:55:07.136Z,1024.4
2018-10-19T05:56:07.412Z,1024.44
2018-10-19T05:57:07.439Z,1024.47
2018-10-19T05:58:07.377Z,1024.45
2018-10-19T05:59:07.632Z,1024.47
2018-10-19T06:00:07.170Z,1024.49
2018-10-19T06:01:07.116Z,1024.49
2018-10-19T06:02:07.450Z,1024.5
2018-10-19T06:03:07.310Z,1024.47
2018-10-19T06:04:07.204Z,1024.53
2018-10-19T06:05:07.626Z,1024.54
2018-10-19T06:06:07.160Z,1024.54
2018-10-19T06:07:07.230Z,1024.53
2018-10-19T06:08:07.432Z,1024.56
2018-10-19T06:09:07.156Z,1024.55
2018-10-19T06:10:09.414Z,1024.58
2018-10-19T06:11:09.632Z,1024.59
2018-10-19T06:12:09.400Z,1024.56
2018-10-19T06:13:09.487Z,1024.6
2018-10-19T06:14:09.607Z,1024.64
2018-10-19T06:15:09.452Z,1024.6
2018-10-19T06:16:09.452Z,1024.6
2018-10-19T06:17:09.639Z,1024.62
2018-10-19T06:18:09.415Z,1024.56
2018-10-19T06:19:09.737Z,1024.64
2018-10-19T06:20:09.576Z,1024.66
2018-10-19T06:21:09.638Z,1024.64
2018-10-19T06:22:09.459Z,1024.64
2018-10-19T06:23:09.590Z,1024.68
2018-10-19T06:24:09.372Z,1024.64
2018-10-19T06:25:09.384Z,1024.62
2018-10-19T06:26:09.974Z,1024.64
2018-10-19T06:27:09.623Z,1024.62
2018-10-19T06:28:09.439Z,1024.69
2018-10-19T06:29:09.591Z,1024.62
2018-10-19T06:30:09.386Z,1024.66
2018-10-19T06:31:09.375Z,1024.67
2018-10-19T06:32:09.520Z,1024.68
2018-10-19T06:33:09.378Z,1024.65
2018-10-19T06:34:09.442Z,1024.71
2018-10-19T06:35:09.622Z,1024.69
2018-10-19T06:36:09.344Z,1024.7
2018-10-19T06:37:09.347Z,1024.74
2018-10-19T06:38:09.588Z,1024.73
2018-10-19T06:39:09.374Z,1024.72
2018-10-19T06:40:09.353Z,1024.81
2018-10-19T06:41:09.630Z,1024.79
2018-10-19T06:42:09.588Z,1024.78
2018-10-19T06:43:09.432Z,1024.76
2018-10-19T06:44:09.524Z,1024.81
2018-10-19T06:45:09.508Z,1024.79
2018-10-19T06:46:09.424Z,1024.82
2018-10-19T06:47:10.092Z,1024.82
2018-10-19T06:48:09.329Z,1024.77
2018-10-19T06:49:09.630Z,1024.79
2018-10-19T06:50:09.730Z,1024.84
2018-10-19T06:51:09.536Z,1024.81
2018-10-19T06:52:09.355Z,1024.85
2018-10-19T06:53:09.622Z,1024.81
2018-10-19T06:54:09.406Z,1024.83
2018-10-19T06:55:09.444Z,1024.83
2018-10-19T06:56:09.531Z,1024.84
2018-10-19T06:57:09.354Z,1024.83
2018-10-19T06:58:09.324Z,1024.85
2018-10-19T06:59:10.010Z,1024.85
2018-10-19T07:00:09.377Z,1024.82
2018-10-19T07:01:09.376Z,1024.8
2018-10-19T07:02:09.478Z,1024.81
2018-10-19T07:03:09.375Z,1024.78
2018-10-19T07:04:09.815Z,1024.81
2018-10-19T07:05:09.529Z,1024.78
2018-10-19T07:06:10.087Z,1024.85
2018-10-19T07:07:09.328Z,1024.79
2018-10-19T07:08:09.922Z,1024.84
2018-10-19T07:09:09.436Z,1024.8
2018-10-19T07:10:09.308Z,1024.8
2018-10-19T07:11:09.525Z,1024.84
2018-10-19T07:12:09.554Z,1024.86
2018-10-19T07:13:09.372Z,1024.9
2018-10-19T07:14:09.464Z,1024.84
2018-10-19T07:15:09.299Z,1024.9
2018-10-19T07:16:09.623Z,1024.93
2018-10-19T07:17:09.638Z,1024.93
2018-10-19T07:18:09.913Z,1024.95
2018-10-19T07:19:09.546Z,1024.93
2018-10-19T07:20:09.620Z,1024.91
2018-10-19T07:21:09.416Z,1024.92
2018-10-19T07:22:09.268Z,1024.92
2018-10-19T07:23:09.668Z,1024.88
2018-10-19T07:24:09.285Z,1024.89
2018-10-19T07:26:09.733Z,1024.89
2018-10-19T07:27:09.278Z,1024.85
2018-10-19T07:28:09.284Z,1024.87
2018-10-19T07:29:09.405Z,1024.88
2018-10-19T07:30:09.510Z,1024.87
2018-10-19T07:31:09.303Z,1024.93
2018-10-19T07:32:09.602Z,1024.92
2018-10-19T07:33:09.267Z,1024.88
2018-10-19T07:34:09.384Z,1024.92
2018-10-19T07:35:09.538Z,1024.93
2018-10-19T07:36:09.454Z,1024.95
2018-10-19T07:37:09.318Z,1024.95
2018-10-19T07:38:09.469Z,1024.93
2018-10-19T07:39:09.730Z,1024.97
2018-10-19T07:40:09.416Z,1024.94
2018-10-19T07:41:09.506Z,1024.99
2018-10-19T07:42:09.551Z,1024.99
2018-10-19T07:43:09.269Z,1024.98
2018-10-19T07:44:09.388Z,1024.98
2018-10-19T07:45:09.370Z,1024.99
2018-10-19T07:46:09.281Z,1025.01
2018-10-19T07:47:09.460Z,1025.01
2018-10-19T07:48:09.952Z,1024.96
2018-10-19T07:49:09.640Z,1024.99
2018-10-19T07:50:09.401Z,1025.02
2018-10-19T07:51:09.246Z,1025.01
2018-10-19T07:52:09.249Z,1025.04
2018-10-19T07:53:09.338Z,1025.04
2018-10-19T07:54:09.498Z,1025.04
2018-10-19T07:55:09.282Z,1025.06
2018-10-19T07:56:09.494Z,1025.06
2018-10-19T07:57:09.596Z,1025.04
2018-10-19T07:58:09.426Z,1025.04
2018-10-19T07:59:09.427Z,1025.05
2018-10-19T08:00:09.498Z,1025.09
2018-10-19T08:01:09.507Z,1025.09
2018-10-19T08:02:09.428Z,1025.06
2018-10-19T08:02:44.153Z,1025.12
2018-10-19T08:03:43.746Z,1025.08
2018-10-19T08:04:43.778Z,1025.09
2018-10-19T08:05:44.152Z,1025.1
2018-10-19T08:06:44.168Z,1025.1
2018-10-19T08:07:43.935Z,1025.09
2018-10-19T08:08:44.080Z,1025.06
2018-10-19T08:09:43.808Z,1025.04
2018-10-19T08:10:43.981Z,1025.04
2018-10-19T08:11:43.869Z,1025.07
2018-10-19T08:12:43.756Z,1025.06
2018-10-19T08:13:43.796Z,1025.03
2018-10-19T08:14:43.912Z,1024.98
2018-10-19T08:15:43.909Z,1024.97
2018-10-19T08:16:43.915Z,1024.98
2018-10-19T08:17:43.732Z,1025
2018-10-19T08:18:43.810Z,1025.03
2018-10-19T08:19:43.925Z,1024.99
2018-10-19T08:20:43.780Z,1024.99
2018-10-19T08:21:44.078Z,1025.02
2018-10-19T08:22:43.746Z,1025.04
2018-10-19T08:23:43.785Z,1025.04
2018-10-19T08:24:43.715Z,1025.03
2018-10-19T08:25:43.744Z,1025.02
2018-10-19T08:26:44.012Z,1025.06
2018-10-19T08:27:44.240Z,1025
2018-10-19T08:28:43.705Z,1025.04
2018-10-19T08:29:43.755Z,1024.95
2018-10-19T08:30:43.720Z,1024.99
2018-10-19T08:31:44.128Z,1024.9
2018-10-19T08:32:43.694Z,1024.96
2018-10-19T08:33:43.705Z,1024.97
2018-10-19T08:34:43.752Z,1024.97
2018-10-19T08:35:43.709Z,1024.96
2018-10-19T08:36:43.726Z,1024.99
2018-10-19T08:37:43.733Z,1024.98
2018-10-19T08:38:43.771Z,1024.98
2018-10-19T08:39:43.703Z,1024.99
2018-10-19T08:40:43.716Z,1024.96
2018-10-19T08:41:44.159Z,1024.97
2018-10-19T08:42:44.095Z,1025
2018-10-19T08:43:43.751Z,1025.02
2018-10-19T08:44:43.672Z,1025.02
2018-10-19T08:45:43.774Z,1025.05
2018-10-19T08:46:43.694Z,1025.02
2018-10-19T08:47:43.899Z,1025.07
2018-10-19T08:48:44.222Z,1025.1
2018-10-19T08:49:43.792Z,1025
2018-10-19T08:50:44.081Z,1025.05
2018-10-19T08:51:43.762Z,1024.97
2018-10-19T08:52:43.680Z,1025.03
2018-10-19T08:53:43.960Z,1025.04
2018-10-19T08:54:43.989Z,1024.94
2018-10-19T08:55:43.688Z,1024.96
2018-10-19T08:56:43.708Z,1024.98
2018-10-19T08:57:43.926Z,1024.93
2018-10-19T08:58:43.675Z,1024.96
2018-10-19T08:59:44.037Z,1024.97
2018-10-19T09:00:43.864Z,1025.01
2018-10-19T09:01:43.672Z,1025
2018-10-19T09:02:43.705Z,1025.02
2018-10-19T09:03:43.640Z,1025.02
2018-10-19T09:04:43.653Z,1025
2018-10-19T09:05:43.666Z,1025.03
2018-10-19T09:06:43.695Z,1024.99
2018-10-19T09:07:44.075Z,1025.02
2018-10-19T09:08:43.684Z,1025.02
2018-10-19T09:09:43.709Z,1025.03
2018-10-19T09:10:44.001Z,1025.03
2018-10-19T09:11:43.873Z,1025.02
2018-10-19T09:12:43.970Z,1025.07
2018-10-19T09:13:43.668Z,1025.04
2018-10-19T09:14:43.687Z,1025
2018-10-19T09:15:43.677Z,1025.05
2018-10-19T09:16:43.658Z,1025.06
2018-10-19T09:17:43.684Z,1025.02
2018-10-19T09:18:43.933Z,1025.03
2018-10-19T09:19:43.653Z,1025.04
2018-10-19T09:20:43.721Z,1025.01
2018-10-19T09:21:43.666Z,1025.01
2018-10-19T09:22:43.782Z,1025
2018-10-19T09:23:43.612Z,1025.01
2018-10-19T09:24:43.660Z,1025.05
2018-10-19T09:25:43.657Z,1024.99
2018-10-19T09:26:43.669Z,1024.95
2018-10-19T09:27:43.670Z,1024.96
2018-10-19T09:28:43.754Z,1024.96
2018-10-19T09:29:43.660Z,1024.95
2018-10-19T09:30:43.644Z,1024.98
2018-10-19T09:31:43.664Z,1024.95
2018-10-19T09:32:43.642Z,1024.98
2018-10-19T09:33:43.830Z,1024.97
2018-10-19T09:34:43.614Z,1024.97
2018-10-19T09:35:43.935Z,1024.97
2018-10-19T09:36:44.100Z,1024.97
2018-10-19T09:37:43.974Z,1024.92
2018-10-19T09:38:43.792Z,1024.93
2018-10-19T09:39:43.647Z,1024.97
2018-10-19T09:40:43.735Z,1024.94
2018-10-19T09:41:43.658Z,1024.91
2018-10-19T09:42:43.678Z,1024.93
2018-10-19T09:43:43.621Z,1024.94
2018-10-19T09:44:43.830Z,1024.9
2018-10-19T09:45:43.612Z,1024.89
2018-10-19T09:46:43.619Z,1024.9
2018-10-19T09:47:43.723Z,1024.91
2018-10-19T09:48:43.656Z,1024.93
2018-10-19T09:49:43.658Z,1024.89
2018-10-19T09:50:43.678Z,1024.9
2018-10-19T09:51:43.648Z,1024.93
2018-10-19T09:52:43.706Z,1024.89
2018-10-19T09:53:43.636Z,1024.92
2018-10-19T09:54:43.882Z,1024.93
2018-10-19T09:55:43.718Z,1024.92
2018-10-19T09:56:43.696Z,1024.94
2018-10-19T09:57:43.660Z,1024.92
2018-10-19T09:58:43.631Z,1024.91
2018-10-19T09:59:43.658Z,1024.93
2018-10-19T10:00:43.812Z,1024.89
2018-10-19T10:01:43.728Z,1024.89
2018-10-19T10:02:43.615Z,1024.92
2018-10-19T10:03:43.687Z,1024.91
2018-10-19T10:04:43.674Z,1024.9
2018-10-19T10:05:43.652Z,1024.9
2018-10-19T10:06:43.686Z,1024.9
2018-10-19T10:07:43.715Z,1024.93
2018-10-19T10:08:43.642Z,1024.85
2018-10-19T10:09:43.632Z,1024.91
2018-10-19T10:10:43.719Z,1024.92
2018-10-19T10:11:43.571Z,1024.88
2018-10-19T10:12:43.584Z,1024.93
2018-10-19T10:13:43.683Z,1024.9
2018-10-19T10:14:43.710Z,1024.92
2018-10-19T10:15:43.726Z,1024.87
2018-10-19T10:16:43.684Z,1024.87
2018-10-19T10:17:43.667Z,1024.83
2018-10-19T10:18:43.582Z,1024.86
2018-10-19T10:19:43.692Z,1024.81
2018-10-19T10:20:43.578Z,1024.81
2018-10-19T10:21:43.630Z,1024.82
2018-10-19T10:22:43.687Z,1024.8
2018-10-19T10:23:43.875Z,1024.84
2018-10-19T10:24:43.834Z,1024.73
2018-10-19T10:25:44.081Z,1024.75
2018-10-19T10:26:43.589Z,1024.72
2018-10-19T10:27:44.093Z,1024.77
2018-10-19T10:28:43.618Z,1024.73
2018-10-19T10:29:43.567Z,1024.74
2018-10-19T10:30:43.553Z,1024.74
2018-10-19T10:31:43.763Z,1024.69
2018-10-19T10:32:43.549Z,1024.67
2018-10-19T10:33:43.579Z,1024.69
2018-10-19T10:34:43.630Z,1024.66
2018-10-19T10:35:43.579Z,1024.64
2018-10-19T10:36:43.544Z,1024.6
2018-10-19T10:37:43.533Z,1024.65
2018-10-19T10:38:43.755Z,1024.63
2018-10-19T10:39:43.540Z,1024.6
2018-10-19T10:40:43.528Z,1024.6
2018-10-19T10:41:43.553Z,1024.61
2018-10-19T10:42:43.564Z,1024.61
2018-10-19T10:43:43.591Z,1024.59
2018-10-19T10:44:43.536Z,1024.62
2018-10-19T10:45:43.545Z,1024.6
2018-10-19T10:46:43.734Z,1024.59
2018-10-19T10:47:43.597Z,1024.58
2018-10-19T10:48:43.687Z,1024.57
2018-10-19T10:49:43.549Z,1024.59
2018-10-19T10:50:43.524Z,1024.53
2018-10-19T10:51:43.539Z,1024.54
2018-10-19T10:52:43.569Z,1024.54
2018-10-19T10:53:43.582Z,1024.52
2018-10-19T10:54:43.520Z,1024.55
2018-10-19T10:55:43.629Z,1024.56
2018-10-19T10:56:43.584Z,1024.48
2018-10-19T10:57:43.567Z,1024.54
2018-10-19T10:58:43.571Z,1024.5
2018-10-19T10:59:43.524Z,1024.48
2018-10-19T11:00:43.563Z,1024.48
2018-10-19T11:01:43.563Z,1024.46
2018-10-19T11:02:43.496Z,1024.45
2018-10-19T11:03:43.675Z,1024.46
2018-10-19T11:04:43.525Z,1024.45
2018-10-19T11:05:43.501Z,1024.47
2018-10-19T11:06:44.285Z,1024.46
2018-10-19T11:07:43.855Z,1024.44
2018-10-19T11:08:43.525Z,1024.43
2018-10-19T11:09:43.490Z,1024.42
2018-10-19T11:10:43.687Z,1024.41
2018-10-19T11:11:43.693Z,1024.37
2018-10-19T11:12:43.619Z,1024.36
2018-10-19T11:13:43.549Z,1024.33
2018-10-19T11:14:43.497Z,1024.3
2018-10-19T11:15:43.487Z,1024.3
2018-10-19T11:16:43.549Z,1024.3
2018-10-19T11:17:43.589Z,1024.28
2018-10-19T11:18:43.622Z,1024.26
2018-10-19T11:19:43.538Z,1024.26
2018-10-19T11:20:44.079Z,1024.28
2018-10-19T11:21:43.462Z,1024.22
2018-10-19T11:22:43.514Z,1024.21
2018-10-19T11:23:43.508Z,1024.23
2018-10-19T11:24:43.624Z,1024.21
2018-10-19T11:25:43.606Z,1024.27
2018-10-19T11:26:43.646Z,1024.19
2018-10-19T11:27:43.576Z,1024.21
2018-10-19T11:28:43.672Z,1024.13
2018-10-19T11:29:43.667Z,1024.12
2018-10-19T11:30:43.645Z,1024.15
2018-10-19T11:31:43.477Z,1024.15
2018-10-19T11:32:43.460Z,1024.14
2018-10-19T11:33:43.579Z,1024.13
2018-10-19T11:34:43.757Z,1024.18
2018-10-19T11:35:43.524Z,1024.16
2018-10-19T11:36:43.550Z,1024.14
2018-10-19T11:37:44.014Z,1024.16
2018-10-19T11:38:43.467Z,1024.15
2018-10-19T11:39:43.452Z,1024.14
2018-10-19T11:40:43.492Z,1024.11
2018-10-19T11:41:43.567Z,1024.08
2018-10-19T11:42:43.572Z,1024.07
2018-10-19T11:43:43.479Z,1024.04
2018-10-19T11:44:43.459Z,1024.08
2018-10-19T11:45:43.521Z,1024.06
2018-10-19T11:46:43.537Z,1023.99
2018-10-19T11:47:43.452Z,1024.02
2018-10-19T11:48:43.633Z,1024.07
2018-10-19T11:49:43.486Z,1024.04
2018-10-19T11:50:43.544Z,1023.99
2018-10-19T11:51:43.591Z,1024.03
2018-10-19T11:52:43.953Z,1024.04
2018-10-19T11:53:43.755Z,1024
2018-10-19T11:54:43.466Z,1024.01
2018-10-19T11:55:43.467Z,1023.95
2018-10-19T11:56:43.460Z,1023.98
2018-10-19T11:57:43.484Z,1023.92
2018-10-19T11:58:43.642Z,1023.98
2018-10-19T11:59:43.485Z,1023.98
2018-10-19T12:00:43.622Z,1023.96
2018-10-19T12:01:43.430Z,1023.94
2018-10-19T12:02:43.435Z,1023.97
2018-10-19T12:03:43.706Z,1023.98
2018-10-19T12:04:43.539Z,1023.93
2018-10-19T12:05:43.410Z,1023.9
2018-10-19T12:06:43.424Z,1023.88
2018-10-19T12:07:43.479Z,1023.94
2018-10-19T12:08:43.425Z,1023.86
2018-10-19T12:09:43.603Z,1023.86
2018-10-19T12:10:43.503Z,1023.78
2018-10-19T12:11:43.414Z,1023.85